Latest Weather Observations for Beaudesert AWS

IDQ60901

Issued at 8:21 am EST Thursday 29 January 2015 (issued every 10 minutes, with the page automatically refreshed every 10 minutes)

About weather observations | Map of Brisbane area stations | Latest observations for Brisbane area | Other Formats
Station Details ID: 040983 Name: BEAUDESERT DRUMLEY STREET Lat: -27.97 Lon: 152.99 Height: 47.81 m
Data from the previous 72 hours. | See also: Recent months at Beaudesert AWS
Date/Time
EST
Tmp

°C
App
Tmp
°C
Dew
Point
°C
Rel
Hum
%
Delta-T

°C
Wind Press
QNH
hPa
Press
MSL
hPa
Rain
since
9 am
mm
Dir
 
Spd
km/h
Gust
km/h
Spd
kts
Gust
kts
29/08:00am 23.1 21.3 13.3 54 5.7 SSW 15 26 8 14 1008.9 1008.6 0.0
29/07:30am 22.0 20.3 12.5 54 5.4 SSW 13 20 7 11 1009.1 1008.8 0.0
29/07:00am 20.9 20.4 12.6 59 4.7 S 7 17 4 9 1008.9 1008.6 0.0
29/06:30am 19.1 19.1 12.4 65 3.7 S 4 6 2 3 1008.8 1008.5 0.0
29/06:00am 18.9 18.4 12.2 65 3.7 SSW 6 11 3 6 1008.3 1008.0 0.0
29/05:30am 19.0 18.5 12.0 64 3.9 S 6 11 3 6 1008.0 1007.7 0.0
29/05:00am 19.3 18.7 12.3 64 3.9 SSW 7 13 4 7 1007.8 1007.5 0.0
29/04:30am 19.6 18.9 13.1 66 3.7 SSW 9 17 5 9 1007.6 1007.3 0.0
29/04:00am 20.0 18.9 13.2 65 3.9 SSW 11 20 6 11 1007.3 1007.0 0.0
29/03:30am 20.1 19.4 13.3 65 3.9 SSW 9 13 5 7 1007.3 1007.0 0.0
29/03:00am 20.1 18.8 13.8 67 3.6 SSW 13 19 7 10 1007.2 1006.9 0.0
29/02:30am 20.2 19.4 14.1 68 3.5 SSW 11 17 6 9 1007.3 1007.0 0.0
29/02:00am 20.2 19.6 14.6 70 3.3 SW 11 22 6 12 1007.7 1007.4 0.0
29/01:30am 20.5 19.5 14.6 69 3.5 SSW 13 19 7 10 1007.5 1007.2 0.0
29/01:00am 20.4 19.6 15.0 71 3.2 SSW 13 22 7 12 1007.5 1007.2 0.0
29/12:30am 20.3 19.1 15.1 72 3.1 SSW 15 24 8 13 1008.0 1007.7 0.0
29/12:00am 20.5 19.4 15.3 72 3.1 SSW 15 22 8 12 1008.3 1008.0 0.0
 
Date/Time
EST
Tmp

°C
App
Tmp
°C
Dew
Point
°C
Rel
Hum
%
Delta-T

°C
Wind Press
QNH
hPa
Press
MSL
hPa
Rain
since
9 am
mm
Dir
 
Spd
km/h
Gust
km/h
Spd
kts
Gust
kts
28/11:30pm 21.3 20.2 15.4 69 3.5 SSW 15 26 8 14 1008.5 1008.2 0.0
28/11:00pm 21.3 21.0 15.4 69 3.5 SSW 11 20 6 11 1008.6 1008.3 0.0
28/10:30pm 21.4 20.8 15.7 70 3.4 SSW 13 24 7 13 1008.3 1008.0 0.0
28/10:00pm 21.3 20.8 15.8 71 3.3 SSW 13 19 7 10 1008.3 1008.0 0.0
28/09:30pm 21.5 21.0 16.0 71 3.3 SSW 13 20 7 11 1008.3 1008.0 0.0
28/09:00pm 21.8 21.8 16.3 71 3.3 SSW 11 19 6 10 1008.4 1008.1 0.0
28/08:30pm 21.5 22.0 16.5 73 3.0 SSW 9 15 5 8 1008.2 1007.9 0.0
28/08:00pm 20.8 21.1 16.0 74 2.9 SSW 9 17 5 9 1008.1 1007.8 0.0
28/07:30pm 20.9 21.5 15.7 72 3.1 SSW 7 11 4 6 1008.0 1007.7 0.0
28/07:00pm 21.6 21.9 16.1 71 3.3 SSW 9 15 5 8 1008.0 1007.7 0.0
28/06:30pm 21.8 21.4 16.1 70 3.4 SSW 13 20 7 11 1007.6 1007.3 0.0
28/06:00pm 21.9 21.1 16.2 70 3.5 SW 15 24 8 13 1007.3 1007.0 0.0
28/05:30pm 22.6 22.9 16.9 70 3.5 SW 11 19 6 10 1006.9 1006.6 0.0
28/05:00pm 23.3 22.2 16.4 65 4.2 SW 17 26 9 14 1006.6 1006.3 0.0
28/04:30pm 23.9 23.7 16.7 64 4.4 SSW 13 17 7 9 1006.3 1006.0 0.0
28/04:00pm 23.5 23.0 17.0 67 4.0 SW 15 24 8 13 1006.3 1006.0 0.0
28/03:30pm 24.8 24.3 17.8 65 4.4 SSW 17 24 9 13 1006.3 1006.0 0.0
28/03:00pm 24.7 25.2 17.4 64 4.6 SSW 11 19 6 10 1006.4 1006.1 0.0
28/02:30pm 24.1 23.8 17.4 66 4.2 SSW 15 24 8 13 1006.4 1006.1 0.0
28/02:00pm 24.0 22.8 17.0 65 4.3 SSW 19 28 10 15 1006.4 1006.1 0.0
28/01:30pm 24.6 22.9 17.3 64 4.5 SSW 22 33 12 18 1006.2 1005.9 0.0
28/01:00pm 24.1 24.0 17.8 68 4.0 SSW 15 24 8 13 1006.5 1006.2 0.0
28/12:30pm 23.5 22.3 17.0 67 4.0 SW 19 32 10 17 1006.9 1006.6 0.0
28/12:00pm 23.4 22.3 17.2 68 3.8 SSW 19 28 10 15 1006.7 1006.4 0.0
28/11:30am 23.9 22.6 16.7 64 4.4 SSW 19 28 10 15 1007.0 1006.7 0.0
28/11:00am 23.8 22.3 16.3 63 4.6 SSW 19 24 10 13 1007.1 1006.8 0.0
28/10:30am 23.7 22.4 17.2 67 4.0 SSW 20 32 11 17 1007.1 1006.8 0.0
28/10:00am 22.3 22.2 17.0 72 3.3 S 13 20 7 11 1007.3 1007.0 0.0
28/09:30am 21.7 21.2 16.9 74 2.9 SSW 15 24 8 13 1007.5 1007.2 0.0
28/09:00am 20.7 20.0 16.5 77 2.5 S 15 26 8 14 1007.3 1007.0 4.0
28/08:30am 20.2 20.7 17.4 84 1.7 SSW 11 17 6 9 1007.4 1007.1 4.0
28/08:00am 19.5 20.7 17.3 87 1.3 S 7 13 4 7 1007.0 1006.7 4.0
28/07:30am 19.0 20.1 17.1 89 1.2 SSW 7 13 4 7 1007.0 1006.7 3.8
28/07:00am 18.9 20.9 17.0 89 1.2 SSW 2 4 1 2 1006.4 1006.1 3.6
28/06:30am 18.6 19.8 16.8 89 1.1 S 6 7 3 4 1006.3 1006.0 3.6
28/06:00am 18.5 19.6 16.7 89 1.1 S 6 7 3 4 1006.1 1005.8 3.0
28/05:30am 18.5 19.5 16.3 87 1.3 SSW 6 9 3 5 1006.1 1005.8 2.6
28/05:00am 18.7 20.0 16.1 85 1.6 SSW 4 9 2 5 1005.8 1005.5 2.0
28/04:30am 19.1 19.8 16.1 83 1.8 SSW 7 11 4 6 1005.8 1005.5 1.4
28/04:00am 19.5 19.8 16.0 80 2.1 SSW 9 13 5 7 1005.8 1005.5 1.4
28/03:30am 19.5 19.9 16.2 81 2.0 SSW 9 15 5 8 1005.9 1005.6 1.4
28/03:00am 19.4 19.8 16.2 82 1.9 SSW 9 15 5 8 1005.9 1005.6 1.4
28/02:30am 19.4 19.8 16.2 82 1.9 SSW 9 13 5 7 1006.1 1005.8 1.4
28/02:00am 19.6 19.7 16.4 82 1.9 SSW 11 17 6 9 1006.4 1006.1 1.4
28/01:30am 20.1 21.1 16.9 82 1.9 SSW 7 17 4 9 1006.8 1006.5 1.4
28/01:00am 20.3 21.5 17.3 83 1.8 S 7 13 4 7 1007.3 1007.0 1.4
28/12:30am 20.4 21.6 17.4 83 1.8 SSW 7 13 4 7 1007.9 1007.6 1.4
28/12:00am 20.5 22.0 17.7 84 1.7 S 6 11 3 6 1008.1 1007.8 1.4
 
Date/Time
EST
Tmp

°C
App
Tmp
°C
Dew
Point
°C
Rel
Hum
%
Delta-T

°C
Wind Press
QNH
hPa
Press
MSL
hPa
Rain
since
9 am
mm
Dir
 
Spd
km/h
Gust
km/h
Spd
kts
Gust
kts
27/11:30pm 20.7 22.3 18.3 86 1.5 SSW 7 15 4 8 1008.2 1007.9 1.2
27/11:00pm 21.1 22.8 18.1 83 1.9 SW 6 11 3 6 1008.0 1007.7 1.0
27/10:30pm 22.4 25.8 19.4 83 1.9 CALM 0 0 0 0 1007.8 1007.5 1.0
27/10:00pm 23.1 26.3 18.8 77 2.7 CALM 0 0 0 0 1007.8 1007.5 0.6
27/09:30pm 24.1 25.1 17.8 68 3.9 ESE 9 15 5 8 1007.5 1007.2 0.2
27/09:00pm 24.1 26.4 18.5 71 3.6 ESE 4 7 2 4 1007.6 1007.3 0.2
27/08:30pm 24.4 25.4 18.6 70 3.7 ESE 11 19 6 10 1007.4 1007.1 0.2
27/08:00pm 24.3 26.0 18.5 70 3.7 SE 7 13 4 7 1006.8 1006.5 0.2
27/07:30pm 24.5 26.2 18.4 69 3.9 E 7 17 4 9 1006.6 1006.3 0.2
27/07:00pm 24.8 26.1 18.5 68 4.0 ESE 9 17 5 9 1006.4 1006.1 0.2
27/06:30pm 25.1 26.9 18.8 68 4.0 E 7 17 4 9 1006.0 1005.7 0.2
27/06:00pm 25.4 26.0 18.6 66 4.3 E 13 20 7 11 1005.7 1005.4 0.2
27/05:30pm 25.7 26.6 18.4 64 4.6 E 11 19 6 10 1005.3 1005.0 0.2
27/05:00pm 26.3 26.3 18.2 61 5.2 E 15 22 8 12 1005.0 1004.7 0.2
27/04:30pm 26.3 25.5 18.4 61 5.0 E 20 32 11 17 1004.7 1004.4 0.2
27/04:00pm 28.2 28.9 19.7 60 5.6 E 15 26 8 14 1004.8 1004.5 0.2
27/03:30pm 28.0 27.5 18.7 57 6.0 E 19 32 10 17 1004.9 1004.6 0.2
27/03:00pm 27.0 27.2 18.6 60 5.4 E 15 24 8 13 1005.5 1005.2 0.2
27/02:30pm 25.7 26.2 19.3 67 4.1 E 15 28 8 15 1005.8 1005.5 0.0
27/02:00pm 27.6 27.6 18.9 59 5.6 E 17 26 9 14 1005.9 1005.6 0.0
27/01:30pm 28.6 29.2 19.5 58 5.9 ESE 15 24 8 13 1006.1 1005.8 0.0
27/01:00pm 29.3 29.7 19.0 53 6.7 E 15 24 8 13 1006.3 1006.0 0.0
27/12:30pm 28.9 29.4 19.2 55 6.3 E 15 26 8 14 1006.6 1006.3 0.0
27/12:00pm 29.3 30.4 19.6 56 6.4 ESE 13 22 7 12 1007.1 1006.8 0.0
27/11:30am 29.8 31.1 20.1 56 6.4 ENE 13 20 7 11 1007.6 1007.3 0.0
27/11:00am 29.7 30.1 19.1 53 6.9 E 15 22 8 12 1007.8 1007.5 0.0
27/10:30am 29.8 31.2 19.5 54 6.7 E 11 20 6 11 1008.2 1007.9 0.0
27/10:00am 28.2 30.2 19.2 58 5.8 E 7 15 4 8 1008.4 1008.1 0.0
27/09:30am 28.5 29.1 19.4 57 5.9 ESE 15 26 8 14 1008.3 1008.0 0.0
27/09:00am 27.8 29.0 19.8 61 5.2 E 13 20 7 11 1008.3 1008.0 0.0
27/08:30am 27.4 28.3 19.2 61 5.3 SE 13 19 7 10 1008.2 1007.9 0.0
27/08:00am 27.3 29.3 19.9 64 4.8 E 9 17 5 9 1008.3 1008.0 0.0
27/07:30am 26.7 28.9 20.5 69 4.1 SE 9 15 5 8 1008.1 1007.8 0.0
27/07:00am 26.2 29.6 21.6 76 3.1 S 6 13 3 7 1008.2 1007.9 0.0
27/06:30am 24.3 28.8 21.6 85 1.8 CALM 0 4 0 2 1008.1 1007.8 0.0
27/06:00am 22.6 26.8 20.9 90 1.1 CALM 0 0 0 0 1008.1 1007.8 0.0
27/05:30am 22.1 26.0 20.4 90 1.1 CALM 0 0 0 0 1007.7 1007.4 0.0
27/05:00am 22.1 25.3 20.4 90 1.1 SE 4 9 2 5 1007.2 1006.9 0.0
27/04:30am 22.0 26.0 20.5 91 1.0 CALM 0 2 0 1 1007.1 1006.8 0.0
27/04:00am 22.2 26.2 20.5 90 1.1 CALM 0 0 0 0 1006.8 1006.5 0.0
27/03:30am 22.4 26.5 20.7 90 1.1 CALM 0 0 0 0 1006.8 1006.5 0.0
27/03:00am 22.8 26.6 20.9 89 1.2 S 2 2 1 1 1006.9 1006.6 0.0
27/02:30am 23.0 26.4 20.9 88 1.4 SSE 4 6 2 3 1006.7 1006.4 0.0
27/02:00am 23.5 27.8 21.2 87 1.5 CALM 0 0 0 0 1007.1 1006.8 0.0
27/01:30am 23.6 27.1 21.1 86 1.6 S 4 6 2 3 1007.2 1006.9 0.0
27/01:00am 23.8 27.0 21.3 86 1.7 S 6 9 3 5 1007.7 1007.4 0.0
27/12:30am 23.6 27.5 21.1 86 1.6 S 2 4 1 2 1007.8 1007.5 0.0
27/12:00am 23.7 28.0 21.2 86 1.6 CALM 0 0 0 0 1008.0 1007.7 0.0
 
Date/Time
EST
Tmp

°C
App
Tmp
°C
Dew
Point
°C
Rel
Hum
%
Delta-T

°C
Wind Press
QNH
hPa
Press
MSL
hPa
Rain
since
9 am
mm
Dir
 
Spd
km/h
Gust
km/h
Spd
kts
Gust
kts
26/11:30pm 23.7 28.0 21.2 86 1.6 CALM 0 0 0 0 1008.6 1008.3 0.0
26/11:00pm 23.5 27.8 21.2 87 1.5 CALM 0 0 0 0 1009.0 1008.7 0.0
26/10:30pm 23.4 27.1 21.5 89 1.3 WNW 4 6 2 3 1008.9 1008.6 0.0
26/10:00pm 23.6 28.0 21.3 87 1.5 CALM 0 0 0 0 1008.8 1008.5 0.0
26/09:30pm 23.8 28.1 21.1 85 1.8 CALM 0 0 0 0 1008.8 1008.5 0.0
26/09:00pm 23.9 27.3 21.0 84 1.9 SW 4 6 2 3 1008.7 1008.4 0.0
26/08:30pm 23.8 27.2 20.9 84 1.9 ESE 4 7 2 4 1008.9 1008.6 0.0
26/08:00pm 24.0 28.2 20.9 83 2.0 CALM 0 0 0 0 1009.3 1009.0 0.0
26/07:30pm 24.1 27.4 20.8 82 2.2 NW 4 6 2 3 1009.0 1008.7 0.0
26/07:00pm 24.2 27.7 21.1 83 2.0 SSW 4 9 2 5 1008.2 1007.9 0.0
26/06:30pm 24.6 27.8 21.3 82 2.2 ESE 6 9 3 5 1008.0 1007.7 0.0
26/06:00pm 26.4 29.8 21.6 75 3.2 SSE 6 11 3 6 1006.8 1006.5 0.0
26/05:30pm 25.0 27.8 20.5 76 2.9 WSW 6 9 3 5 1006.7 1006.4 0.0
26/05:00pm 26.3 30.0 21.5 75 3.2 SSW 4 11 2 6 1006.6 1006.3 0.0
26/04:30pm 28.5 31.4 21.8 67 4.5 ESE 9 13 5 7 1006.1 1005.8 0.0
26/04:00pm 29.2 30.3 21.2 62 5.4 ESE 17 28 9 15 1005.9 1005.6 0.0
26/03:30pm 30.4 31.7 22.6 63 5.3 E 20 32 11 17 1005.5 1005.2 0.0
26/03:00pm 31.0 31.1 22.6 61 5.8 ENE 26 39 14 21 1005.1 1004.8 0.0
26/02:30pm 31.2 31.4 21.4 56 6.6 ENE 22 33 12 18 1004.7 1004.4 0.0
26/02:00pm 31.8 32.6 20.7 51 7.4 E 17 24 9 13 1004.5 1004.2 0.0
26/01:30pm 33.1 34.6 21.3 50 8.0 E 15 22 8 12 1005.1 1004.8 0.0
26/01:00pm 33.3 35.1 21.8 51 7.8 ENE 15 22 8 12 1005.1 1004.8 0.0
26/12:30pm 33.6 35.8 21.1 48 8.4 ENE 11 19 6 10 1005.3 1005.0 0.0
26/12:00pm 33.9 37.0 21.0 47 8.7 SE 6 13 3 7 1005.8 1005.5 0.0
26/11:30am 33.7 36.5 20.5 46 8.8 NW 6 13 3 7 1006.3 1006.0 0.0
26/11:00am 33.6 37.5 21.1 48 8.5 SSW 2 4 1 2 1006.6 1006.3 0.0
26/10:30am 33.1 36.8 22.2 52 7.5 SSW 6 9 3 5 1006.8 1006.5 0.0
26/10:00am 32.0 35.8 20.9 52 7.5 SSW 2 6 1 3 1006.9 1006.6 0.0
26/09:30am 31.4 34.6 21.3 55 6.8 SSW 6 9 3 5 1007.2 1006.9 0.0
26/09:00am 30.4 34.1 21.5 59 6.0 SW 4 7 2 4 1007.2 1006.9 0.0
26/08:30am 29.1 32.7 21.3 62 5.2 SSW 4 6 2 3 1007.2 1006.9 0.0

Latest Capital City Observations: Canberra | Sydney | Melbourne | Brisbane | Adelaide | Perth | Hobart | Darwin

Other Formats:

Comma delimited format used in spreadsheet applications
http://www.bom.gov.au/fwo/IDQ60901/IDQ60901.95575.axf

JavaScript Object Notation format (JSON) in row-major order
http://www.bom.gov.au/fwo/IDQ60901/IDQ60901.95575.json